Rachel, Nevada Weather observations

Data are for observation ending at time listed.
 Day   Time    Ave.   Ave.  Ave.  Vector   Max.   Stn.    Total    Solar   Ave.  
  of    of     Air    Rel.  Wind   Wind    Wind   Baro.  Precip.   Rad.    Soil  
Year   Day     Temp.  Hum.  Speed  Dir.    Gust   Pres.                    Temp. 
2026   (PST)    F      %     mph   deg.    mph     mb.     in.     W/m2     F   
------------------------------------------------------------------------------
 123    1:50   40.9    28    1.6   174      2.5   847.5    0.00       0    59.7
 123    2:00   40.4    28    1.9   155      3.0   847.6    0.00       0    59.6
 123    2:10   40.0    28    1.9   178      3.1   847.6    0.00       0    59.6
 123    2:20   40.9    30    3.0   174      3.8   847.5    0.00       0    59.3
 123    2:30   40.6    30    2.8   195      3.7   847.5    0.00       0    59.1
 123    2:40   39.8    31    2.4   186      3.3   847.4    0.00       0    58.9
 123    2:50   39.7    30    1.8   187      2.8   847.4    0.00       0    58.9
 123    3:00   40.7    30    2.1   238      3.4   847.4    0.00       0    58.7
 123    3:10   39.2    31    1.1   251      3.4   847.4    0.00       0    58.5
 123    3:20   38.4    30    1.2   173      2.9   847.4    0.00       0    58.3
 123    3:30   39.0    32    1.6   195      2.5   847.3    0.00       0    58.0
 123    3:40   38.8    31    0.9   202      2.0   847.2    0.00       0    58.0
 123    3:50   38.9    32    1.1   178      1.8   847.1    0.00       0    58.0
 123    4:00   38.3    32    1.1   180      2.2   847.1    0.00       0    57.8
 123    4:10   38.2    32    0.4   136      1.3   847.0    0.00       0    57.5
 123    4:20   37.5    33    0.9   100      2.9   846.9    0.00       0    57.4
 123    4:30   35.0    34    0.7    72      1.6   847.0    0.00       0    57.4
 123    4:40   35.8    35    1.0    46      1.9   847.0    0.00       0    57.2
 123    4:50   37.0    37    0.7    13      2.2   847.0    0.00       3    56.9
 123    5:00   37.4    36    0.1    57      1.4   846.9    0.00       8    56.9
 123    5:10   37.7    34    0.5    69      1.7   846.8    0.00      23    56.7
 123    5:20   38.3    34    2.3   118      3.3   847.0    0.00      33    56.6
 123    5:30   38.8    34    3.9   112      4.8   847.1    0.00      53    56.5
 123    5:40   40.9    33    2.0   117      3.5   847.3    0.00      69    56.4
 123    5:50   42.2    32    0.6   144      2.0   847.5    0.00      77    56.2
 123    6:00   42.7    31    0.5   321      2.2   847.7    0.00      89    56.1
 123    6:10   41.4    31    1.9   343      3.2   847.9    0.00     114    56.2
 123    6:20   42.9    30    0.5   293      2.7   848.0    0.00     204    56.1
 123    6:30   46.4    28    0.4   344      1.4   848.2    0.00     238    55.8
 123    6:40   47.2    28    0.9   310      2.3   848.5    0.00     247    56.1
 123    6:50   49.5    27    0.6   265      2.6   848.8    0.00     305    56.0
 123    7:00   51.9    25    1.2   198      2.9   849.0    0.00     254    56.2
 123    7:10   51.4    25    1.8   228      3.2   849.2    0.00     349    56.4
 123    7:20   54.1    23    1.4   254      2.6   849.4    0.00     303    56.9
 123    7:30   55.4    22    1.4   281      3.0   849.1    0.00     385    56.7
 123    7:40   56.2    20    1.0   319      3.3   849.4    0.00     429    57.0
 123    7:50   59.1    17    0.7   268      2.8   849.3    0.00     465    56.9
 123    8:00   60.2    16    1.1   300      3.1   849.4    0.00     487    57.5
 123    8:10   61.7    15    1.5   258      4.2   849.6    0.00     515    57.9
 123    8:20   62.4    15    1.9   272      4.0   849.8    0.00     543    58.2
 123    8:30   62.3    16    2.4   354      6.2   849.8    0.00     523    58.6
 123    8:40   64.1    15    1.8   321      3.9   849.9    0.00     550    59.3
 123    8:50   64.9    14    1.9   348      4.0   850.0    0.00     588    59.7
 123    9:00   66.7    13    1.9   357      3.9   850.2    0.00     610    60.2
 123    9:10   68.0    12    2.1    54      5.0   850.1    0.00     627    60.3
 123    9:20   69.0    12    5.2   360      7.5   849.9    0.00     645    60.9
 123    9:30   70.3    11    2.9   327      7.1   850.0    0.00     663    61.3
 123    9:40   72.1    10    5.8   208     13.5   849.8    0.00     678    61.8
 123    9:50   72.3    10   10.5   160     18.4   849.9    0.00     696    62.2
 123   10:00   72.4    10   12.3   162     17.7   849.8    0.00     716    63.0
 123   10:10   72.7    10   10.2   141     17.2   849.7    0.00     742    63.6
 123   10:20   73.8     9   13.2   154     19.5   849.6    0.00     791    64.0
 123   10:30   74.6     9   16.5   166     23.4   849.5    0.00     806    64.8
 123   10:40   74.2     9   20.8   166     29.9   849.4    0.00     486    65.1
 123   10:50   73.2    10   15.4   171     24.3   849.3    0.00     470    66.0
 123   11:00   73.8    10   17.3   175     27.4   849.1    0.00     619    66.3
 123   11:10   74.4    10   14.9   178     23.5   849.0    0.00     785    66.7
 123   11:20   74.5    10   15.8   201     24.4   848.9    0.00     479    67.6
 123   11:30   73.8    10   14.1   176     24.8   848.9    0.00     386    67.7
 123   11:40   73.1    11   11.8   142     32.4   848.7    0.00     355    68.0
 123   11:50   73.2    11   17.0   192     34.0   848.5    0.00     290    68.3
 123   12:00   73.3    11   13.4   202     29.8   848.4    0.00     629    69.0
 123   12:10   74.7    11    5.4   199     13.2   848.1    0.00     879    68.9
 123   12:20   75.5    10   15.7   176     23.4   848.0    0.00     708    69.0
 123   12:30   75.5    10   15.5   178     30.5   847.9    0.00     797    69.2
 123   12:40   75.7    10   19.9   182     30.1   847.8    0.00     585    69.4
 123   12:50   75.5    10   15.8   193     25.6   847.8    0.00     548    69.3
 123   13:00   74.8    11   16.8   209     27.0   847.6    0.00     343    69.4
 123   13:10   73.9    11   14.9   158     26.0   847.5    0.00     238    69.4
 123   13:20   73.7    11   12.9   146     24.0   847.3    0.00     247    69.6
 123   13:30   73.7    11   21.7   179     36.7   847.0    0.00     242    69.6
 123   13:40   72.8    12   16.2   200     27.2   847.1    0.00     168    69.7
 123   13:50   72.7    13   20.1   183     29.2   846.9    0.00     206    69.5
 123   14:00   72.9    13   18.0   193     28.1   846.8    0.00     294    69.9
 123   14:10   72.6    13   20.4   181     27.1   846.7    0.00     278    69.6
 123   14:20   72.0    14   20.0   178     27.6   846.6    0.00     345    69.8
 123   14:30   72.3    14   18.5   188     27.2   846.5    0.00     285    69.7
 123   14:40   72.4    14   15.8   192     25.3   846.3    0.00     480    69.7
 123   14:50   73.3    13   14.5   169     26.7   846.2    0.00     639    69.7
 123   15:00   73.8    13   19.2   170     28.0   846.1    0.00     386    69.7
 123   15:10   72.1    14   19.2   177     27.0   846.2    0.00     244    69.6
 123   15:20   72.0    14   15.7   186     21.8   846.0    0.00     282    69.9
 123   15:30   72.6    14   13.4   199     19.5   845.9    0.00     296    69.7
 123   15:40   72.7    14   11.9   212     18.7   845.9    0.00     318    70.0
 123   15:50   72.8    14   10.5   218     21.2   845.9    0.00     317    69.8
 123   16:00   73.4    13   17.7   199     26.7   845.7    0.00     251    69.9
 123   16:10   72.4    15   19.0   217     33.5   845.8    0.00     222    69.6
 123   16:20   70.6    16   21.7   225     31.4   845.9    0.00     146    69.8
 123   16:30   69.7    17   19.7   224     25.9   845.9    0.00     120    69.9
 123   16:40   69.5    17   11.8   231     21.2   845.7    0.00      86    69.7
 123   16:50   69.5    16   18.7   222     31.1   845.5    0.00      63    69.7
 123   17:00   68.1    19   22.9   217     36.4   845.5    0.00      66    69.9
 123   17:10   67.9    19   27.5   210     35.5   845.3    0.00      53    69.5
 123   17:20   67.9    18   25.8   205     36.7   845.2    0.00      50    69.5
 123   17:30   68.6    17   18.7   204     30.6   845.0    0.00      41    69.5
 123   17:40   68.9    16   11.4   210     19.5   844.8    0.00      44    69.4
 123   17:50   69.2    16    6.3   214      9.7   844.7    0.00      58    69.2
 123   18:00   68.6    17    6.9   191     12.1   844.7    0.00      31    69.2
 123   18:10   68.1    18    5.7   194      8.0   844.6    0.00      26    68.6
 123   18:20   67.0    18    5.6   185      6.8   844.6    0.00      12    68.8
 123   18:30   65.6    19    7.9   187     11.1   844.8    0.00       6    68.7
 123   18:40   65.4    22   12.9   212     19.4   844.8    0.00       3    68.7
 123   18:50   65.6    22   13.7   213     21.1   844.7    0.00       0    68.5
 123   19:00   65.8    22   14.5   203     22.3   844.5    0.00       0    68.2
 123   19:10   66.4    20   17.7   189     23.8   844.3    0.00       0    68.1
 123   19:20   66.2    21   28.7   177     36.5   844.2    0.00       0    68.0
 123   19:30   65.7    22   25.6   170     36.3   844.4    0.00       0    68.1
 123   19:40   66.2    20   23.0   156     44.0   844.4    0.00       0    67.7
 123   19:50   66.1    21   17.7   150     28.7   844.7    0.00       0    67.5
 123   20:00   65.5    21    9.4   167     13.7   844.8    0.00       0    67.3
 123   20:10   64.7    22    7.3   196     11.6   844.8    0.00       0    67.4
 123   20:20   64.4    23    2.9   243      6.4   844.7    0.00       0    67.0
 123   20:30   64.2    23    5.9   206      9.7   844.9    0.00       0    67.0
 123   20:40   64.0    24    7.8   276     13.2   845.3    0.00       0    66.9
 123   20:50   63.5    25    8.5   248     15.1   845.4    0.00       0    66.6
 123   21:00   63.1    26    7.8   272     14.2   845.2    0.00       0    66.5
 123   21:10   63.2    26    6.5   322     13.1   845.3    0.00       0    66.4
 123   21:20   63.2    27    4.0   159      6.2   845.4    0.00       0    66.3
 123   21:30   62.8    27    8.3   169     24.9   845.6    0.00       0    66.4
 123   21:40   63.1    28   14.3   147     33.9   845.4    0.00       0    66.1
 123   21:50   62.4    30    3.6    84      8.4   845.1    0.00       0    66.1
 123   22:00   62.0    30    3.2    24      5.0   844.9    0.00       0    65.9
 123   22:10   61.5    30    2.5   317      4.2   844.8    0.00       0    65.8
 123   22:20   60.6    31    3.7   340      4.5   844.7    0.00       0    65.7
 123   22:30   59.9    32    3.6    66      6.1   844.8    0.00       0    65.5
 123   22:40   59.7    34   10.1   196     25.1   845.1    0.00       0    65.5
 123   22:50   61.7    31   13.4   251     27.6   844.9    0.00       0    65.7
 123   23:00   60.3    35    7.1   219     12.6   845.4    0.00       0    65.2
 123   23:10   59.8    34    3.2   206      6.5   845.5    0.00       0    65.1
 123   23:20   59.5    36    3.0   174      4.5   845.6    0.00       0    64.8
 123   23:30   58.9    36    4.7   142      7.2   845.7    0.00       0    64.7
 123   23:40   58.8    35    5.0    61      6.6   845.7    0.00       0    64.8
 123   23:50   58.7    36    6.1    18      8.6   845.5    0.00       0    64.6
 124    0:00   58.5    39    9.6    72     15.5   845.6    0.00       0    64.5
 124    0:10   58.7    39   10.9    62     17.0   845.4    0.00       0    64.2
 124    0:20   58.3    40   11.5    77     17.5   845.1    0.00       0    64.4
 124    0:30   56.4    44    6.2    69      9.4   844.8    0.00       0    64.1
 124    0:40   55.7    45    5.5    98      9.7   844.7    0.00       0    64.3
 124    0:50   56.6    42    5.7    61      7.7   844.9    0.00       0    64.0
 124    1:00   55.8    44    2.6    53      5.9   844.9    0.00       0    63.8
 124    1:10   55.6    44    0.7   345      6.6   844.7    0.00       0    63.6
 124    1:20   53.4    48    3.3   330      6.1   844.5    0.00       0    63.6
 124    1:30   53.8    47    3.1   289      8.3   844.5    0.00       0    63.5
 124    1:40   53.1    50    6.2   259      9.3   844.3    0.00       0    63.5

Return to St. George, Utah graphs page.


Western Regional Climate Center,wrcc@dri.edu